Time;durP1;ratioP1;P1;durP2;ratioP2;P2;SDS_P1;SDS_P2;PMS_P1;PMS_P2;Temp;Humidity;BMP_temperature;BMP_pressure;BME280_temperature;BME280_humidity;BME280_pressure;Samples;Min_cycle;Max_cycle;Signal;HPM_P1;HPM_P2
2023/12/03 00:01:42;;;;;;;40.00;15.60;;;;;;;-0.36;100.00;101747.47;6221697;23;20250;-89
2023/12/03 00:04:07;;;;;;;36.17;14.60;;;;;;;-0.30;100.00;101745.31;6221582;23;20012;-89
2023/12/03 00:06:35;;;;;;;37.45;14.93;;;;;;;-0.30;100.00;101745.31;6196151;23;20070;-89
2023/12/03 00:09:00;;;;;;;41.08;14.68;;;;;;;-0.29;100.00;101742.50;6195909;23;20012;-87
2023/12/03 00:11:26;;;;;;;37.22;14.60;;;;;;;-0.25;100.00;101740.44;6220774;23;20014;-89
2023/12/03 00:13:54;;;;;;;34.07;14.07;;;;;;;-0.23;100.00;101742.00;6221459;23;20414;-88
2023/12/03 00:16:19;;;;;;;41.85;15.38;;;;;;;-0.19;100.00;101740.81;6220973;23;20316;-88
2023/12/03 00:18:45;;;;;;;36.40;15.03;;;;;;;-0.19;100.00;101748.81;6196846;23;20015;-88
2023/12/03 00:21:10;;;;;;;34.50;14.27;;;;;;;-0.15;100.00;101746.72;6220765;23;20374;-89
2023/12/03 00:23:36;;;;;;;31.57;14.63;;;;;;;-0.14;100.00;101751.09;6221085;23;20012;-89
2023/12/03 00:26:01;;;;;;;34.47;14.43;;;;;;;-0.09;100.00;101756.94;6221230;23;20008;-88
2023/12/03 00:28:27;;;;;;;37.93;15.87;;;;;;;-0.09;100.00;101758.72;6247689;23;20011;-89
2023/12/03 00:30:52;;;;;;;35.90;15.00;;;;;;;-0.06;100.00;101754.00;6220661;23;20015;-89
2023/12/03 00:33:17;;;;;;;30.37;14.67;;;;;;;-0.01;100.00;101753.63;6220841;23;20438;-89
2023/12/03 00:35:46;;;;;;;37.08;14.32;;;;;;;0.01;100.00;101762.34;6195981;23;20016;-89
2023/12/03 00:38:11;;;;;;;32.58;14.10;;;;;;;0.02;100.00;101756.06;6196770;23;20012;-89
2023/12/03 00:40:40;;;;;;;33.45;14.20;;;;;;;0.03;100.00;101751.56;6196624;23;20306;-89
2023/12/03 00:43:08;;;;;;;33.47;14.33;;;;;;;0.02;100.00;101752.56;6195735;23;20008;-89
2023/12/03 00:45:34;;;;;;;30.50;14.35;;;;;;;0.02;100.00;101764.06;6220880;23;20031;-89
2023/12/03 00:48:01;;;;;;;29.17;14.07;;;;;;;-0.02;100.00;101754.59;6195652;23;20004;-88
2023/12/03 00:50:27;;;;;;;32.45;14.82;;;;;;;-0.03;100.00;101760.91;6196574;23;20319;-89
2023/12/03 00:52:53;;;;;;;34.42;15.23;;;;;;;-0.02;100.00;101763.44;6220008;23;20004;-89
2023/12/03 00:55:18;;;;;;;32.23;14.60;;;;;;;-0.01;100.00;101758.97;6195256;23;20023;-89
2023/12/03 00:57:46;;;;;;;38.67;14.70;;;;;;;0.02;100.00;101761.41;6248111;23;20074;-89
2023/12/03 01:00:12;;;;;;;33.65;15.80;;;;;;;0.05;100.00;101763.81;6221416;23;20239;-89
2023/12/03 01:02:38;;;;;;;35.38;15.52;;;;;;;0.01;100.00;101765.03;6220482;23;20005;-89
2023/12/03 01:05:03;;;;;;;29.60;13.30;;;;;;;-0.01;100.00;101762.47;6247393;23;20011;-89
2023/12/03 01:07:29;;;;;;;32.53;15.75;;;;;;;0.02;100.00;101757.88;6220361;23;20008;-89
2023/12/03 01:09:54;;;;;;;36.93;15.53;;;;;;;-0.01;100.00;101764.31;6220519;23;20345;-89
2023/12/03 01:12:20;;;;;;;37.30;16.53;;;;;;;-0.02;100.00;101767.94;6195351;23;20337;-89
2023/12/03 01:14:48;;;;;;;30.97;14.40;;;;;;;0.02;100.00;101765.91;6195311;23;20012;-89
2023/12/03 01:17:14;;;;;;;37.95;15.27;;;;;;;0.02;100.00;101773.91;6219934;23;20457;-89
2023/12/03 01:19:39;;;;;;;35.20;16.17;;;;;;;-0.01;100.00;101777.66;6220636;23;20012;-89
2023/12/03 01:22:05;;;;;;;34.80;15.88;;;;;;;-0.03;100.00;101772.44;6247235;23;20000;-89
2023/12/03 01:24:30;;;;;;;34.07;16.37;;;;;;;-0.01;100.00;101777.66;6195279;23;20330;-89
2023/12/03 01:26:56;;;;;;;36.27;15.23;;;;;;;0.02;100.00;101779.22;6221955;23;20001;-89
2023/12/03 01:29:21;;;;;;;33.17;15.37;;;;;;;-0.01;100.00;101775.81;6220635;23;20053;-89
2023/12/03 01:31:49;;;;;;;36.03;16.30;;;;;;;0.01;100.00;101783.69;6195183;23;20013;-89
2023/12/03 01:34:14;;;;;;;36.10;15.45;;;;;;;0.01;100.00;101781.03;6220406;23;20250;-90
2023/12/03 01:36:40;;;;;;;32.33;14.82;;;;;;;0.02;100.00;101790.75;6246814;23;20008;-89
2023/12/03 01:39:05;;;;;;;33.28;15.80;;;;;;;-0.03;100.00;101783.13;6219984;23;20004;-89
2023/12/03 01:41:31;;;;;;;38.17;16.07;;;;;;;-0.02;100.00;101781.28;6248136;23;20028;-89
2023/12/03 01:43:56;;;;;;;38.57;15.47;;;;;;;-0.05;100.00;101778.88;6220071;23;20027;-89
2023/12/03 01:46:22;;;;;;;32.72;15.27;;;;;;;-0.12;100.00;101780.31;6220756;23;20557;-89
2023/12/03 01:48:49;;;;;;;32.60;15.68;;;;;;;-0.18;100.00;101779.00;6220580;23;20058;-89
2023/12/03 01:51:14;;;;;;;35.40;15.60;;;;;;;-0.25;100.00;101788.44;6219607;23;20457;-88
2023/12/03 01:53:42;;;;;;;41.85;16.65;;;;;;;-0.37;100.00;101783.13;6219650;23;20004;-89
2023/12/03 01:56:09;;;;;;;38.40;16.87;;;;;;;-0.39;100.00;101789.53;6220167;23;20012;-88
2023/12/03 01:58:35;;;;;;;43.00;17.60;;;;;;;-0.49;100.00;101783.22;6195378;23;20275;-89
2023/12/03 02:01:00;;;;;;;39.95;17.55;;;;;;;-0.51;100.00;101794.03;6220388;23;20054;-89
2023/12/03 02:03:26;;;;;;;39.10;17.43;;;;;;;-0.55;100.00;101793.44;6220108;23;20442;-89
2023/12/03 02:06:09;;;;;;;40.72;19.60;;;;;;;-0.50;100.00;101789.53;6219228;23;20018;-89
2023/12/03 02:08:35;;;;;;;42.63;18.93;;;;;;;-0.50;100.00;101792.19;6170474;23;20046;-89
2023/12/03 02:11:03;;;;;;;45.42;19.55;;;;;;;-0.45;100.00;101790.03;6220063;23;20799;-89
2023/12/03 02:13:32;;;;;;;45.67;20.67;;;;;;;-0.46;100.00;101791.81;6195580;23;20066;-89
2023/12/03 02:15:57;;;;;;;45.67;20.38;;;;;;;-0.42;100.00;101784.47;6246531;23;20028;-89
2023/12/03 02:18:24;;;;;;;48.57;19.47;;;;;;;-0.36;100.00;101799.97;6219943;23;20398;-89
2023/12/03 02:20:52;;;;;;;41.25;18.33;;;;;;;-0.29;100.00;101789.69;6219621;23;20050;-89
2023/12/03 02:23:19;;;;;;;39.90;17.08;;;;;;;-0.28;100.00;101804.69;6219343;23;20012;-89
2023/12/03 02:25:48;;;;;;;43.90;18.88;;;;;;;-0.26;100.00;101803.59;6220102;23;20008;-89
2023/12/03 02:28:14;;;;;;;42.70;17.83;;;;;;;-0.25;100.00;101799.97;6247740;23;20103;-89
2023/12/03 02:30:40;;;;;;;40.27;16.53;;;;;;;-0.22;100.00;101802.41;6220532;23;20036;-89
2023/12/03 02:33:06;;;;;;;38.17;17.05;;;;;;;-0.19;100.00;101804.00;6219880;23;20039;-89
2023/12/03 02:35:31;;;;;;;36.57;16.17;;;;;;;-0.19;100.00;101802.16;6219919;23;20373;-89
2023/12/03 02:37:57;;;;;;;36.50;17.00;;;;;;;-0.15;100.00;101800.09;6219839;23;20043;-89
2023/12/03 02:40:22;;;;;;;39.45;16.20;;;;;;;-0.12;100.00;101807.84;6219783;23;20381;-89
2023/12/03 02:42:47;;;;;;;33.05;15.90;;;;;;;-0.13;100.00;101805.28;6246261;23;20004;-89
2023/12/03 02:45:14;;;;;;;39.60;16.00;;;;;;;-0.10;100.00;101799.75;6195409;23;20016;-89
2023/12/03 02:47:39;;;;;;;36.90;15.77;;;;;;;-0.07;100.00;101807.50;6219599;23;20305;-88
2023/12/03 02:50:05;;;;;;;33.80;14.40;;;;;;;-0.05;100.00;101808.22;6219778;23;20012;-88
2023/12/03 02:52:31;;;;;;;37.17;16.15;;;;;;;-0.07;100.00;101796.81;6220374;23;20015;-89
2023/12/03 02:54:56;;;;;;;37.60;14.67;;;;;;;-0.06;100.00;101806.50;6246321;23;20402;-90
2023/12/03 02:57:22;;;;;;;31.50;14.33;;;;;;;-0.08;100.00;101803.13;6219791;23;20015;-89
2023/12/03 02:59:47;;;;;;;35.15;14.65;;;;;;;-0.13;100.00;101798.16;6219655;23;20339;-89
2023/12/03 03:02:13;;;;;;;34.85;15.63;;;;;;;-0.06;100.00;101807.38;6194712;23;20012;-89
2023/12/03 03:04:38;;;;;;;39.10;16.23;;;;;;;-0.22;100.00;101797.06;6219595;23;20089;-89
2023/12/03 03:07:04;;;;;;;37.27;15.83;;;;;;;-0.20;100.00;101800.44;6246603;23;20015;-89
2023/12/03 03:09:29;;;;;;;35.60;15.30;;;;;;;-0.22;100.00;101804.22;6220399;23;20095;-90
2023/12/03 03:11:57;;;;;;;36.10;14.02;;;;;;;-0.23;100.00;101791.84;6194273;23;20012;-89
2023/12/03 03:14:22;;;;;;;38.10;16.47;;;;;;;-0.31;100.00;101803.13;6219951;23;20004;-89
2023/12/03 03:16:48;;;;;;;39.10;16.95;;;;;;;-0.39;100.00;101794.88;6220105;23;20238;-89
2023/12/03 03:19:13;;;;;;;34.70;13.90;;;;;;;-0.49;100.00;101797.41;6246378;23;20365;-89
2023/12/03 03:21:39;;;;;;;36.43;15.40;;;;;;;-0.56;100.00;101796.19;6219131;23;20012;-89
2023/12/03 03:24:06;;;;;;;30.38;13.45;;;;;;;-0.62;100.00;101796.66;6220741;23;20012;-89
2023/12/03 03:26:35;;;;;;;35.28;15.52;;;;;;;-0.64;100.00;101799.44;6221343;23;20012;-89
2023/12/03 03:29:00;;;;;;;37.55;16.38;;;;;;;-0.75;100.00;101794.97;6196892;23;20035;-89
2023/12/03 03:31:26;;;;;;;39.67;15.53;;;;;;;-0.67;100.00;101801.50;6221744;23;20004;-89
2023/12/03 03:33:51;;;;;;;36.67;15.87;;;;;;;-0.77;100.00;101791.56;6221263;23;20062;-89
2023/12/03 03:36:19;;;;;;;35.22;16.30;;;;;;;-0.78;100.00;101792.53;6221457;23;20008;-89
2023/12/03 03:38:45;;;;;;;37.93;15.83;;;;;;;-0.80;100.00;101801.59;6221248;23;20008;-89
2023/12/03 03:41:10;;;;;;;38.60;16.30;;;;;;;-0.88;100.00;101804.84;6171451;23;20008;-89
2023/12/03 03:43:36;;;;;;;39.30;16.37;;;;;;;-0.92;100.00;101804.22;6221098;23;20322;-89
2023/12/03 03:46:01;;;;;;;38.43;16.47;;;;;;;-1.00;100.00;101806.63;6248131;23;20496;-89
2023/12/03 03:48:27;;;;;;;41.20;15.35;;;;;;;-1.06;100.00;101802.63;6197370;23;20008;-89
2023/12/03 03:50:52;;;;;;;37.73;16.27;;;;;;;-1.12;100.00;101797.75;6221205;23;20012;-89
2023/12/03 03:53:18;;;;;;;35.03;15.90;;;;;;;-1.19;100.00;101809.00;6196779;23;20012;-89
2023/12/03 03:55:43;;;;;;;38.97;15.85;;;;;;;-1.25;100.00;101805.81;6221766;23;20431;-89
2023/12/03 03:58:09;;;;;;;38.00;14.77;;;;;;;-1.31;100.00;101816.94;6196047;23;20023;-89
2023/12/03 04:00:34;;;;;;;38.83;16.60;;;;;;;-1.32;100.00;101820.53;6220891;23;20012;-89
2023/12/03 04:03:00;;;;;;;36.80;15.30;;;;;;;-1.40;100.00;101830.94;6221280;23;20016;-89
2023/12/03 04:05:25;;;;;;;35.97;14.87;;;;;;;-1.46;100.00;101823.38;6220976;23;20011;-89
2023/12/03 04:07:54;;;;;;;35.88;15.15;;;;;;;-1.44;100.00;101829.44;6221078;23;20004;-89
2023/12/03 04:10:21;;;;;;;36.88;14.30;;;;;;;-1.49;100.00;101823.59;6221011;23;20062;-89
2023/12/03 04:12:50;;;;;;;43.37;15.50;;;;;;;-1.56;100.00;101814.38;6220895;23;20038;-89
2023/12/03 04:15:18;;;;;;;41.72;16.30;;;;;;;-1.56;100.00;101828.53;6222046;23;20247;-89
2023/12/03 04:17:44;;;;;;;40.53;16.13;;;;;;;-1.64;100.00;101821.13;6221353;23;20004;-89
2023/12/03 04:20:13;;;;;;;43.67;16.95;;;;;;;-1.68;100.00;101824.09;6221482;23;20008;-89
2023/12/03 04:22:38;;;;;;;39.50;15.75;;;;;;;-1.75;100.00;101826.34;6222355;23;20008;-89
2023/12/03 04:25:04;;;;;;;40.77;16.03;;;;;;;-1.76;100.00;101832.63;6247859;23;20058;-89
2023/12/03 04:27:30;;;;;;;34.95;15.25;;;;;;;-1.84;100.00;101825.22;6195963;23;20465;-89
2023/12/03 04:29:55;;;;;;;41.27;15.87;;;;;;;-1.85;100.00;101830.66;6222249;23;20069;-90
2023/12/03 04:32:21;;;;;;;28.83;11.87;;;;;;;-1.85;100.00;101833.31;6172835;23;20004;-88
2023/12/03 04:34:47;;;;;;;39.15;14.40;;;;;;;-1.88;100.00;101831.72;6220640;23;20389;-89
2023/12/03 04:37:12;;;;;;;40.67;15.57;;;;;;;-1.90;100.00;101835.47;6220468;23;20090;-89
2023/12/03 04:39:38;;;;;;;49.23;15.70;;;;;;;-1.96;100.00;101823.44;6195922;23;20012;-89
2023/12/03 04:42:04;;;;;;;37.93;14.10;;;;;;;-1.92;100.00;101829.38;6220890;23;20445;-89
2023/12/03 04:44:31;;;;;;;41.17;15.15;;;;;;;-1.96;100.00;101837.59;6220604;23;20020;-89
2023/12/03 04:46:56;;;;;;;43.25;15.88;;;;;;;-2.05;100.00;101840.03;6220856;23;20012;-89
2023/12/03 04:49:22;;;;;;;48.13;16.73;;;;;;;-2.07;100.00;101842.81;6221278;23;20077;-89
2023/12/03 04:51:47;;;;;;;41.03;15.57;;;;;;;-2.06;100.00;101846.34;6221797;23;20012;-90
2023/12/03 04:54:12;;;;;;;42.53;15.93;;;;;;;-2.10;100.00;101848.34;6220838;23;20330;-90
2023/12/03 04:56:38;;;;;;;44.63;16.13;;;;;;;-2.15;100.00;101851.31;6220454;23;20134;-89
2023/12/03 04:59:04;;;;;;;37.35;13.80;;;;;;;-2.16;100.00;101838.97;6248056;23;20239;-90
2023/12/03 05:01:30;;;;;;;41.87;14.87;;;;;;;-2.13;100.00;101838.78;6196321;23;20035;-90
2023/12/03 05:03:55;;;;;;;42.15;14.73;;;;;;;-2.19;100.00;101847.19;6221061;23;20681;-90
2023/12/03 05:06:20;;;;;;;41.93;14.70;;;;;;;-2.18;100.00;101848.88;6195905;23;20315;-90
2023/12/03 05:08:46;;;;;;;41.73;15.37;;;;;;;-2.20;100.00;101842.84;6220995;23;20019;-90
2023/12/03 05:11:11;;;;;;;45.07;17.07;;;;;;;-2.26;100.00;101845.91;6195348;23;20012;-89
2023/12/03 05:13:37;;;;;;;50.95;18.17;;;;;;;-2.28;100.00;101849.66;6220659;23;20039;-89
2023/12/03 05:16:06;;;;;;;47.10;17.03;;;;;;;-2.33;100.00;101848.16;6221957;23;20035;-89
2023/12/03 05:18:32;;;;;;;40.85;14.20;;;;;;;-2.31;100.00;101850.69;6247498;23;20014;-90
2023/12/03 05:20:57;;;;;;;54.60;19.37;;;;;;;-2.30;100.00;101855.06;6220509;23;20322;-89
2023/12/03 05:23:27;;;;;;;55.50;19.70;;;;;;;-2.35;100.00;101852.75;6220134;23;20022;-89
2023/12/03 05:25:52;;;;;;;47.97;18.08;;;;;;;-2.32;100.00;101859.63;6247247;23;20246;-89
2023/12/03 05:28:20;;;;;;;45.70;16.73;;;;;;;-2.36;100.00;101851.03;6220605;23;20008;-89
2023/12/03 05:30:46;;;;;;;53.30;19.30;;;;;;;-2.39;100.00;101851.25;6220373;23;20181;-89
2023/12/03 05:33:11;;;;;;;50.50;16.33;;;;;;;-2.40;100.00;101848.69;6220350;23;20084;-89
2023/12/03 05:35:36;;;;;;;50.33;18.50;;;;;;;-2.39;100.00;101851.25;6194901;23;20435;-89
2023/12/03 05:38:02;;;;;;;49.13;18.20;;;;;;;-2.42;100.00;101850.59;6220534;23;20062;-89
2023/12/03 05:40:28;;;;;;;53.78;18.60;;;;;;;-2.47;100.00;101865.06;6220180;23;20008;-88
2023/12/03 05:42:53;;;;;;;50.35;17.88;;;;;;;-2.50;100.00;101859.09;6196085;23;20115;-89
2023/12/03 05:45:19;;;;;;;52.13;18.97;;;;;;;-2.50;100.00;101865.25;6219502;23;20016;-89
2023/12/03 05:47:45;;;;;;;44.22;15.60;;;;;;;-2.48;100.00;101862.47;6194458;23;20098;-88
2023/12/03 05:50:10;;;;;;;53.90;18.07;;;;;;;-2.53;100.00;101862.81;6219583;23;20094;-88
2023/12/03 05:52:43;;;;;;;41.63;16.08;;;;;;;-2.56;100.00;101857.69;6194909;23;20018;-88
2023/12/03 05:55:11;;;;;;;41.57;16.27;;;;;;;-2.58;100.00;101862.28;6194750;23;20062;-89
2023/12/03 05:57:37;;;;;;;45.38;15.07;;;;;;;-2.65;100.00;101861.00;6219979;23;20088;-88
2023/12/03 06:00:03;;;;;;;45.00;16.53;;;;;;;-2.64;100.00;101865.38;6195110;23;20043;-88
2023/12/03 06:02:30;;;;;;;44.47;15.32;;;;;;;-2.62;100.00;101870.56;6220879;23;20235;-88
2023/12/03 06:04:56;;;;;;;45.72;16.73;;;;;;;-2.70;100.00;101871.94;6246502;23;20011;-88
2023/12/03 06:07:21;;;;;;;49.03;15.87;;;;;;;-2.71;100.00;101866.72;6247253;23;20004;-88
2023/12/03 06:09:47;;;;;;;49.08;16.42;;;;;;;-2.70;100.00;101868.41;6246539;23;20004;-88
2023/12/03 06:12:12;;;;;;;47.13;17.03;;;;;;;-2.69;100.00;101876.31;6194710;23;20438;-88
2023/12/03 06:14:38;;;;;;;42.83;15.20;;;;;;;-2.67;100.00;101879.69;6195919;23;20009;-89
2023/12/03 06:17:03;;;;;;;47.83;15.90;;;;;;;-2.73;100.00;101873.94;6170104;23;20090;-89
2023/12/03 06:19:29;;;;;;;39.00;13.00;;;;;;;-2.71;100.00;101885.31;6194323;23;20031;-88
2023/12/03 06:21:54;;;;;;;51.83;17.20;;;;;;;-2.72;100.00;101884.44;6220244;23;20354;-88
2023/12/03 06:24:22;;;;;;;45.77;15.83;;;;;;;-2.74;100.00;101882.88;6194804;23;20008;-88
2023/12/03 06:26:47;;;;;;;45.80;16.05;;;;;;;-2.72;100.00;101886.28;6220089;23;20331;-88
2023/12/03 06:29:13;;;;;;;41.77;14.07;;;;;;;-2.64;100.00;101894.59;6220242;23;20012;-88
2023/12/03 06:31:44;;;;;;;47.00;17.07;;;;;;;-2.63;100.00;101883.00;6219799;23;20008;-88
2023/12/03 06:34:12;;;;;;;43.35;15.70;;;;;;;-2.58;100.00;101878.22;6247242;23;20442;-90
2023/12/03 06:36:38;;;;;;;46.72;16.73;;;;;;;-2.55;100.00;101875.34;6220284;23;20004;-90
2023/12/03 06:39:04;;;;;;;47.10;14.57;;;;;;;-2.51;100.00;101882.16;6220871;23;20015;-90
2023/12/03 06:41:32;;;;;;;51.05;15.80;;;;;;;-2.56;100.00;101876.31;6220463;23;20011;-90
2023/12/03 06:43:58;;;;;;;42.30;14.95;;;;;;;-2.57;100.00;101865.78;6226945;23;20011;-94
2023/12/03 06:46:23;;;;;;;42.67;15.53;;;;;;;-2.63;100.00;101872.34;6201111;23;20102;-91
2023/12/03 06:48:49;;;;;;;48.80;15.43;;;;;;;-2.59;100.00;101868.53;6220364;23;20020;-89
2023/12/03 06:51:14;;;;;;;49.33;15.90;;;;;;;-2.60;100.00;101871.31;6194331;23;20019;-89
2023/12/03 06:53:40;;;;;;;38.20;14.70;;;;;;;-2.63;100.00;101872.34;6220797;23;20012;-91
2023/12/03 06:56:11;;;;;;;42.10;14.73;;;;;;;-2.67;100.00;101868.22;6197933;23;20170;-94
2023/12/03 06:58:41;;;;;;;42.28;14.57;;;;;;;-2.70;100.00;101865.75;6199831;23;20015;-89
2023/12/03 07:01:07;;;;;;;42.57;15.70;;;;;;;-2.70;100.00;101871.06;6224029;23;20012;-88
2023/12/03 07:03:33;;;;;;;37.50;12.80;;;;;;;-2.73;100.00;101863.31;6222857;23;20703;-86
2023/12/03 07:05:59;;;;;;;37.67;14.03;;;;;;;-2.73;100.00;101864.19;6197543;23;20019;-86
2023/12/03 07:08:25;;;;;;;45.22;16.23;;;;;;;-2.74;100.00;101874.91;6196884;23;20381;-87
2023/12/03 07:10:50;;;;;;;42.58;14.90;;;;;;;-2.80;100.00;101873.50;6222535;23;20016;-86
2023/12/03 07:13:16;;;;;;;44.42;15.30;;;;;;;-2.82;100.00;101867.44;6221610;23;20437;-88
2023/12/03 07:15:49;;;;;;;50.63;16.37;;;;;;;-2.83;100.00;101877.22;6221580;23;20449;-90
2023/12/03 07:18:19;;;;;;;43.40;15.40;;;;;;;-2.84;100.00;101879.97;6248481;23;20004;-89
2023/12/03 07:20:47;;;;;;;46.95;15.48;;;;;;;-2.82;100.00;101886.03;6221606;23;20009;-88
2023/12/03 07:23:15;;;;;;;45.53;15.23;;;;;;;-2.83;100.00;101881.69;6223298;23;20058;-88
2023/12/03 07:25:41;;;;;;;44.17;15.30;;;;;;;-2.84;100.00;101883.47;6196356;23;20012;-89
2023/12/03 07:28:06;;;;;;;46.95;14.30;;;;;;;-2.88;100.00;101889.97;6249386;23;20031;-89
2023/12/03 07:30:32;;;;;;;40.13;14.35;;;;;;;-2.90;100.00;101891.00;6222777;23;20012;-89
2023/12/03 07:32:58;;;;;;;43.30;14.85;;;;;;;-2.88;100.00;101902.38;6248256;23;20004;-89
2023/12/03 07:35:23;;;;;;;47.83;15.30;;;;;;;-2.93;100.00;101894.72;6195804;23;20438;-88
2023/12/03 07:37:51;;;;;;;45.00;15.07;;;;;;;-2.90;100.00;101898.97;6196183;23;20091;-89
2023/12/03 07:40:16;;;;;;;43.97;15.13;;;;;;;-2.87;100.00;101896.13;6248051;23;20008;-89
2023/12/03 07:42:44;;;;;;;38.87;14.60;;;;;;;-2.84;100.00;101898.56;6221990;23;20004;-89
2023/12/03 07:45:12;;;;;;;46.33;15.98;;;;;;;-2.85;100.00;101903.03;6196492;23;20508;-88
2023/12/03 07:47:38;;;;;;;38.75;13.75;;;;;;;-2.85;100.00;101899.50;6221692;23;20069;-89
2023/12/03 07:50:04;;;;;;;41.23;14.37;;;;;;;-2.86;100.00;101893.38;6221465;23;20087;-88
2023/12/03 07:52:29;;;;;;;38.75;13.38;;;;;;;-2.79;100.00;101896.47;6220662;23;20008;-89
2023/12/03 07:54:55;;;;;;;44.03;14.20;;;;;;;-2.82;100.00;101889.56;6221145;23;20092;-89
2023/12/03 07:57:20;;;;;;;41.17;13.40;;;;;;;-2.81;100.00;101893.06;6221144;23;20446;-89
2023/12/03 07:59:45;;;;;;;47.60;16.17;;;;;;;-2.76;100.00;101895.41;6196285;23;20426;-89
2023/12/03 08:02:11;;;;;;;43.85;14.27;;;;;;;-2.71;100.00;101894.13;6221597;23;20008;-89
2023/12/03 08:04:37;;;;;;;40.90;14.83;;;;;;;-2.71;100.00;101902.09;6221386;23;20015;-89
2023/12/03 08:07:02;;;;;;;39.08;13.00;;;;;;;-2.68;100.00;101901.06;6221844;23;20011;-89
2023/12/03 08:09:32;;;;;;;38.80;12.93;;;;;;;-2.60;100.00;101905.84;6221129;23;20456;-89
2023/12/03 08:11:58;;;;;;;41.92;13.73;;;;;;;-2.60;100.00;101911.16;6196947;23;20012;-89
2023/12/03 08:14:23;;;;;;;41.47;14.30;;;;;;;-2.57;100.00;101909.16;6221440;23;20339;-89
2023/12/03 08:16:49;;;;;;;41.80;14.73;;;;;;;-2.54;100.00;101919.59;6221150;23;20008;-89
2023/12/03 08:19:14;;;;;;;41.63;14.53;;;;;;;-2.52;100.00;101909.69;6195894;23;20008;-89
2023/12/03 08:21:40;;;;;;;41.10;14.60;;;;;;;-2.49;100.00;101912.13;6247055;23;20065;-89
2023/12/03 08:24:05;;;;;;;36.22;13.73;;;;;;;-2.44;100.00;101908.31;6221439;23;20004;-89
2023/12/03 08:26:31;;;;;;;38.37;14.83;;;;;;;-2.41;100.00;101919.59;6221150;23;20008;-90
2023/12/03 08:28:58;;;;;;;40.57;14.67;;;;;;;-2.27;100.00;101916.00;6221287;23;20362;-89
2023/12/03 08:31:23;;;;;;;38.03;14.05;;;;;;;-2.32;100.00;101918.97;6196050;23;20034;-89
2023/12/03 08:33:49;;;;;;;39.27;13.67;;;;;;;-2.31;100.00;101925.97;6221117;23;20079;-89
2023/12/03 08:36:18;;;;;;;37.55;12.38;;;;;;;-2.27;100.00;101920.44;6221199;23;20083;-89
2023/12/03 08:38:44;;;;;;;40.70;14.68;;;;;;;-2.21;100.00;101928.88;6221766;23;20315;-90
2023/12/03 08:41:12;;;;;;;41.03;14.13;;;;;;;-2.20;100.00;101927.06;6220958;23;20008;-89
2023/12/03 08:43:38;;;;;;;38.72;14.70;;;;;;;-2.14;100.00;101924.84;6247336;23;20015;-89
2023/12/03 08:46:04;;;;;;;43.90;14.60;;;;;;;-2.05;100.00;101922.47;6195280;23;20016;-89
2023/12/03 08:48:29;;;;;;;40.50;13.80;;;;;;;-1.99;100.00;101930.91;6221819;23;20016;-88
2023/12/03 08:50:55;;;;;;;34.90;12.90;;;;;;;-1.91;100.00;101933.00;6220674;23;20016;-88
2023/12/03 08:53:22;;;;;;;40.10;14.37;;;;;;;-1.84;100.00;101936.13;6221088;23;20011;-88
2023/12/03 08:55:48;;;;;;;34.42;12.73;;;;;;;-1.77;100.00;101935.56;6195953;23;20450;-88
2023/12/03 08:58:13;;;;;;;41.87;15.60;;;;;;;-1.72;100.00;101939.72;6221109;23;20004;-87
2023/12/03 09:00:38;;;;;;;35.13;13.67;;;;;;;-1.66;100.00;101932.13;6222050;23;20427;-89
2023/12/03 09:03:05;;;;;;;39.50;13.80;;;;;;;-1.66;100.00;101932.13;6220284;23;20043;-89
2023/12/03 09:05:33;;;;;;;22.70;9.55;;;;;;;-1.63;100.00;101931.91;6195702;23;20324;-89
2023/12/03 09:07:59;;;;;;;32.60;12.90;;;;;;;-1.57;100.00;101940.44;6246297;23;20369;-86
2023/12/03 09:10:24;;;;;;;37.00;14.60;;;;;;;-1.57;100.00;101943.09;6247411;23;20008;-90
2023/12/03 09:12:52;;;;;;;32.90;12.03;;;;;;;-1.54;100.00;101935.72;6221615;23;20275;-91
2023/12/03 09:15:20;;;;;;;28.23;11.13;;;;;;;-1.53;100.00;101936.59;6247792;23;20009;-91
2023/12/03 09:17:46;;;;;;;34.97;13.60;;;;;;;-1.48;100.00;101940.63;6220719;23;20034;-89
2023/12/03 09:20:11;;;;;;;32.20;13.07;;;;;;;-1.39;100.00;101939.09;6220668;23;20082;-89
2023/12/03 09:22:37;;;;;;;24.53;10.23;;;;;;;-1.32;100.00;101942.19;6221410;23;20000;-91
2023/12/03 09:25:02;;;;;;;30.63;12.73;;;;;;;-1.35;100.00;101935.25;6221509;23;20008;-89
2023/12/03 09:27:28;;;;;;;28.57;10.80;;;;;;;-1.26;100.00;101941.75;6198024;23;20008;-92
2023/12/03 09:29:53;;;;;;;29.30;11.90;;;;;;;-1.23;100.00;101941.50;6198355;23;20008;-92
2023/12/03 09:32:19;;;;;;;33.63;12.45;;;;;;;-1.18;100.00;101942.03;6245561;23;20061;-90
2023/12/03 09:34:44;;;;;;;27.30;10.70;;;;;;;-1.10;100.00;101939.66;6221047;23;20012;-93
2023/12/03 09:37:10;;;;;;;32.93;12.57;;;;;;;-1.07;100.00;101927.94;6248071;23;20012;-91
2023/12/03 09:39:39;;;;;;;30.98;11.20;;;;;;;-0.97;100.00;101933.44;6221568;23;20011;-90
2023/12/03 09:42:10;;;;;;;33.33;12.10;;;;;;;-0.92;100.00;101931.28;6196319;23;20015;-91
2023/12/03 09:44:51;;;;;;;28.40;10.82;;;;;;;-0.86;100.00;101929.97;6220990;23;20036;-90
2023/12/03 09:47:17;;;;;;;29.73;11.25;;;;;;;-0.83;100.00;101927.09;6220803;23;20031;-91
2023/12/03 09:49:47;;;;;;;31.88;11.68;;;;;;;-0.77;100.00;101924.81;6220373;23;20011;-93
2023/12/03 09:52:15;;;;;;;28.37;10.73;;;;;;;-0.69;100.00;101928.69;6220687;23;20367;-91
2023/12/03 09:54:42;;;;;;;29.17;12.02;;;;;;;-0.62;100.00;101927.28;6219736;23;20004;-90
2023/12/03 09:57:09;;;;;;;29.73;11.07;;;;;;;-0.60;100.00;101930.69;6245661;23;20015;-89
2023/12/03 09:59:37;;;;;;;24.77;11.23;;;;;;;-0.52;100.00;101924.78;6247083;23;20007;-90
2023/12/03 10:02:04;;;;;;;29.98;12.35;;;;;;;-0.50;100.00;101917.50;6220800;23;20414;-89
2023/12/03 10:04:30;;;;;;;29.17;12.07;;;;;;;-0.41;100.00;101916.81;6220088;23;20051;-91
2023/12/03 10:06:58;;;;;;;28.45;11.80;;;;;;;-0.33;100.00;101929.56;6246899;23;20031;-89
2023/12/03 10:09:27;;;;;;;28.40;10.65;;;;;;;-0.34;100.00;101915.34;6220282;23;20012;-89
2023/12/03 10:11:55;;;;;;;29.02;11.50;;;;;;;-0.32;100.00;101910.78;6195019;23;20008;-89
2023/12/03 10:14:21;;;;;;;25.63;11.70;;;;;;;-0.25;100.00;101909.34;6246960;23;20008;-90
2023/12/03 10:16:50;;;;;;;23.40;8.93;;;;;;;-0.17;100.00;101907.91;6246518;23;20008;-89
2023/12/03 10:19:28;;;;;;;26.55;10.93;;;;;;;-0.16;100.00;101910.44;6220847;23;20292;-89
2023/12/03 10:21:58;;;;;;;27.03;11.30;;;;;;;-0.05;100.00;101902.44;6194922;23;20008;-90
2023/12/03 10:24:23;;;;;;;28.70;10.80;;;;;;;-0.01;100.00;101898.56;6246813;23;20008;-89
2023/12/03 10:27:00;;;;;;;25.20;11.40;;;;;;;0.07;100.00;101897.97;6219941;23;20018;-90
2023/12/03 10:29:27;;;;;;;23.50;9.68;;;;;;;0.17;100.00;101900.75;6219634;23;20011;-89
2023/12/03 10:31:53;;;;;;;22.73;9.20;;;;;;;0.23;100.00;101897.59;6219344;23;20004;-90
2023/12/03 10:34:24;;;;;;;24.35;10.90;;;;;;;0.31;100.00;101896.97;6220145;23;20079;-90
2023/12/03 10:36:53;;;;;;;24.37;10.00;;;;;;;0.38;100.00;101892.00;6220639;23;20169;-90
2023/12/03 10:39:19;;;;;;;20.98;9.68;;;;;;;0.47;100.00;101891.25;6219501;23;20275;-90
2023/12/03 10:42:06;;;;;;;20.25;9.02;;;;;;;0.58;100.00;101882.41;6195127;23;20004;-90
2023/12/03 10:44:38;;;;;;;22.08;9.48;;;;;;;0.72;100.00;101881.28;6246432;23;20019;-90
2023/12/03 10:47:11;;;;;;;20.98;9.32;;;;;;;0.77;100.00;101868.38;6220116;23;20004;-90
2023/12/03 10:49:48;;;;;;;23.33;9.23;;;;;;;0.91;100.00;101869.91;6245597;23;20012;-90
2023/12/03 10:52:16;;;;;;;21.35;9.27;;;;;;;1.02;100.00;101873.41;6219802;23;20814;-90
2023/12/03 10:54:42;;;;;;;22.80;9.75;;;;;;;1.23;100.00;101861.88;6194722;23;20062;-90
2023/12/03 10:57:08;;;;;;;20.23;9.40;;;;;;;1.45;100.00;101866.28;6220946;23;20012;-91
2023/12/03 10:59:41;;;;;;;18.58;8.23;;;;;;;1.66;100.00;101868.94;6247156;23;20077;-91